sensor_id;sensor_type;location;lat;lon;timestamp;P1;durP1;ratioP1;P2;durP2;ratioP2
55290;SDS011;41155;39.768;2.712;2023-03-25T00:00:59;16.92;;;10.70;;
55290;SDS011;41155;39.768;2.712;2023-03-25T00:03:27;19.75;;;10.18;;
55290;SDS011;41155;39.768;2.712;2023-03-25T00:05:57;14.93;;;11.75;;
55290;SDS011;41155;39.768;2.712;2023-03-25T00:08:23;14.70;;;9.80;;
55290;SDS011;41155;39.768;2.712;2023-03-25T00:10:52;8.88;;;8.15;;
55290;SDS011;41155;39.768;2.712;2023-03-25T00:13:19;22.20;;;11.20;;
55290;SDS011;41155;39.768;2.712;2023-03-25T00:15:46;12.50;;;8.88;;
55290;SDS011;41155;39.768;2.712;2023-03-25T00:18:12;10.93;;;9.43;;
55290;SDS011;41155;39.768;2.712;2023-03-25T00:20:41;20.13;;;12.68;;
55290;SDS011;41155;39.768;2.712;2023-03-25T00:23:10;20.80;;;12.45;;
55290;SDS011;41155;39.768;2.712;2023-03-25T00:25:36;20.10;;;11.60;;
55290;SDS011;41155;39.768;2.712;2023-03-25T00:28:02;12.77;;;10.10;;
55290;SDS011;41155;39.768;2.712;2023-03-25T00:30:28;13.43;;;9.60;;
55290;SDS011;41155;39.768;2.712;2023-03-25T00:32:53;15.35;;;9.30;;
55290;SDS011;41155;39.768;2.712;2023-03-25T00:35:19;17.00;;;9.32;;
55290;SDS011;41155;39.768;2.712;2023-03-25T00:37:46;15.45;;;9.25;;
55290;SDS011;41155;39.768;2.712;2023-03-25T00:40:16;16.00;;;9.70;;
55290;SDS011;41155;39.768;2.712;2023-03-25T00:42:41;12.95;;;8.63;;
55290;SDS011;41155;39.768;2.712;2023-03-25T00:45:14;10.93;;;9.82;;
55290;SDS011;41155;39.768;2.712;2023-03-25T00:47:40;14.50;;;12.93;;
55290;SDS011;41155;39.768;2.712;2023-03-25T00:50:06;30.17;;;13.38;;
55290;SDS011;41155;39.768;2.712;2023-03-25T00:52:31;16.05;;;12.60;;
55290;SDS011;41155;39.768;2.712;2023-03-25T00:54:57;16.17;;;11.80;;
55290;SDS011;41155;39.768;2.712;2023-03-25T00:57:22;17.38;;;11.93;;
55290;SDS011;41155;39.768;2.712;2023-03-25T00:59:48;13.85;;;12.38;;
55290;SDS011;41155;39.768;2.712;2023-03-25T01:02:13;15.13;;;10.35;;
55290;SDS011;41155;39.768;2.712;2023-03-25T01:04:40;17.67;;;10.65;;
55290;SDS011;41155;39.768;2.712;2023-03-25T01:07:05;17.95;;;11.70;;
55290;SDS011;41155;39.768;2.712;2023-03-25T01:09:32;12.98;;;11.00;;
55290;SDS011;41155;39.768;2.712;2023-03-25T01:11:57;23.45;;;11.23;;
55290;SDS011;41155;39.768;2.712;2023-03-25T01:14:23;13.60;;;12.20;;
55290;SDS011;41155;39.768;2.712;2023-03-25T01:16:51;17.83;;;13.00;;
55290;SDS011;41155;39.768;2.712;2023-03-25T01:19:18;20.27;;;14.75;;
55290;SDS011;41155;39.768;2.712;2023-03-25T01:21:45;18.45;;;13.93;;
55290;SDS011;41155;39.768;2.712;2023-03-25T01:24:11;18.02;;;15.52;;
55290;SDS011;41155;39.768;2.712;2023-03-25T01:26:38;14.68;;;12.95;;
55290;SDS011;41155;39.768;2.712;2023-03-25T01:29:08;15.40;;;12.43;;
55290;SDS011;41155;39.768;2.712;2023-03-25T01:31:35;15.30;;;12.45;;
55290;SDS011;41155;39.768;2.712;2023-03-25T01:34:00;13.27;;;10.85;;
55290;SDS011;41155;39.768;2.712;2023-03-25T01:36:26;22.77;;;12.68;;
55290;SDS011;41155;39.768;2.712;2023-03-25T01:38:53;12.75;;;10.70;;
55290;SDS011;41155;39.768;2.712;2023-03-25T01:41:21;17.33;;;12.15;;
55290;SDS011;41155;39.768;2.712;2023-03-25T01:44:05;14.68;;;11.77;;
55290;SDS011;41155;39.768;2.712;2023-03-25T01:46:33;20.85;;;12.32;;
55290;SDS011;41155;39.768;2.712;2023-03-25T01:49:04;15.70;;;13.48;;
55290;SDS011;41155;39.768;2.712;2023-03-25T01:51:36;16.65;;;13.65;;
55290;SDS011;41155;39.768;2.712;2023-03-25T01:54:04;15.35;;;13.57;;
55290;SDS011;41155;39.768;2.712;2023-03-25T01:56:32;16.73;;;13.18;;
55290;SDS011;41155;39.768;2.712;2023-03-25T01:59:02;15.23;;;13.07;;
55290;SDS011;41155;39.768;2.712;2023-03-25T02:01:30;17.05;;;15.25;;
55290;SDS011;41155;39.768;2.712;2023-03-25T02:03:56;18.98;;;14.73;;
55290;SDS011;41155;39.768;2.712;2023-03-25T02:06:43;19.98;;;14.75;;
55290;SDS011;41155;39.768;2.712;2023-03-25T02:09:12;19.20;;;14.73;;
55290;SDS011;41155;39.768;2.712;2023-03-25T02:11:40;16.00;;;12.75;;
55290;SDS011;41155;39.768;2.712;2023-03-25T02:14:06;14.93;;;13.40;;
55290;SDS011;41155;39.768;2.712;2023-03-25T02:28:06;14.30;;;12.65;;
55290;SDS011;41155;39.768;2.712;2023-03-25T02:34:27;20.88;;;16.25;;
55290;SDS011;41155;39.768;2.712;2023-03-25T02:41:40;22.60;;;14.88;;
55290;SDS011;41155;39.768;2.712;2023-03-25T02:46:52;20.58;;;15.13;;
55290;SDS011;41155;39.768;2.712;2023-03-25T02:49:22;17.90;;;15.00;;
55290;SDS011;41155;39.768;2.712;2023-03-25T02:54:38;17.90;;;14.32;;
55290;SDS011;41155;39.768;2.712;2023-03-25T02:57:06;15.70;;;13.32;;
55290;SDS011;41155;39.768;2.712;2023-03-25T02:59:33;14.20;;;12.55;;
55290;SDS011;41155;39.768;2.712;2023-03-25T03:02:03;17.25;;;13.32;;
55290;SDS011;41155;39.768;2.712;2023-03-25T03:04:46;21.20;;;13.55;;
55290;SDS011;41155;39.768;2.712;2023-03-25T03:10:14;16.17;;;14.15;;
55290;SDS011;41155;39.768;2.712;2023-03-25T03:15:51;21.42;;;15.27;;
55290;SDS011;41155;39.768;2.712;2023-03-25T03:18:36;20.45;;;15.98;;
55290;SDS011;41155;39.768;2.712;2023-03-25T03:21:50;16.50;;;14.77;;
55290;SDS011;41155;39.768;2.712;2023-03-25T03:27:03;15.48;;;13.88;;
55290;SDS011;41155;39.768;2.712;2023-03-25T03:29:56;15.55;;;13.95;;
55290;SDS011;41155;39.768;2.712;2023-03-25T03:35:02;15.63;;;13.60;;
55290;SDS011;41155;39.768;2.712;2023-03-25T03:37:36;14.40;;;12.88;;
55290;SDS011;41155;39.768;2.712;2023-03-25T03:40:09;16.95;;;13.38;;
55290;SDS011;41155;39.768;2.712;2023-03-25T03:42:44;17.98;;;14.57;;
55290;SDS011;41155;39.768;2.712;2023-03-25T03:45:39;23.42;;;16.83;;
55290;SDS011;41155;39.768;2.712;2023-03-25T03:48:18;14.55;;;12.63;;
55290;SDS011;41155;39.768;2.712;2023-03-25T03:53:41;15.13;;;13.63;;
55290;SDS011;41155;39.768;2.712;2023-03-25T03:56:16;15.98;;;13.88;;
55290;SDS011;41155;39.768;2.712;2023-03-25T03:58:50;19.95;;;13.73;;
55290;SDS011;41155;39.768;2.712;2023-03-25T04:01:20;13.38;;;12.07;;
55290;SDS011;41155;39.768;2.712;2023-03-25T04:04:14;14.90;;;13.23;;
55290;SDS011;41155;39.768;2.712;2023-03-25T04:06:50;17.05;;;13.18;;
55290;SDS011;41155;39.768;2.712;2023-03-25T04:09:29;14.60;;;11.85;;
55290;SDS011;41155;39.768;2.712;2023-03-25T04:11:59;15.48;;;13.00;;
55290;SDS011;41155;39.768;2.712;2023-03-25T04:14:26;17.83;;;14.27;;
55290;SDS011;41155;39.768;2.712;2023-03-25T04:16:53;14.52;;;13.05;;
55290;SDS011;41155;39.768;2.712;2023-03-25T04:19:19;26.77;;;14.55;;
55290;SDS011;41155;39.768;2.712;2023-03-25T04:21:45;15.57;;;13.90;;
55290;SDS011;41155;39.768;2.712;2023-03-25T04:24:14;21.05;;;15.38;;
55290;SDS011;41155;39.768;2.712;2023-03-25T04:26:41;15.93;;;14.27;;
55290;SDS011;41155;39.768;2.712;2023-03-25T04:29:07;19.20;;;14.18;;
55290;SDS011;41155;39.768;2.712;2023-03-25T04:31:33;16.27;;;13.68;;
55290;SDS011;41155;39.768;2.712;2023-03-25T04:34:01;15.27;;;13.70;;
55290;SDS011;41155;39.768;2.712;2023-03-25T04:36:28;20.38;;;14.55;;
55290;SDS011;41155;39.768;2.712;2023-03-25T04:38:57;15.60;;;14.00;;
55290;SDS011;41155;39.768;2.712;2023-03-25T04:41:23;17.77;;;13.95;;
55290;SDS011;41155;39.768;2.712;2023-03-25T04:43:49;17.92;;;14.05;;
55290;SDS011;41155;39.768;2.712;2023-03-25T04:46:15;21.60;;;13.02;;
55290;SDS011;41155;39.768;2.712;2023-03-25T04:48:42;17.45;;;13.63;;
55290;SDS011;41155;39.768;2.712;2023-03-25T04:51:09;16.08;;;13.00;;
55290;SDS011;41155;39.768;2.712;2023-03-25T04:53:37;16.23;;;12.93;;
55290;SDS011;41155;39.768;2.712;2023-03-25T04:56:03;14.38;;;12.88;;
55290;SDS011;41155;39.768;2.712;2023-03-25T04:58:30;16.30;;;14.05;;
55290;SDS011;41155;39.768;2.712;2023-03-25T05:00:56;15.90;;;13.35;;
55290;SDS011;41155;39.768;2.712;2023-03-25T05:03:30;13.82;;;12.32;;
55290;SDS011;41155;39.768;2.712;2023-03-25T05:05:56;12.73;;;11.50;;
55290;SDS011;41155;39.768;2.712;2023-03-25T05:08:21;22.98;;;13.48;;
55290;SDS011;41155;39.768;2.712;2023-03-25T05:10:48;16.23;;;13.07;;
55290;SDS011;41155;39.768;2.712;2023-03-25T05:13:14;15.05;;;11.70;;
55290;SDS011;41155;39.768;2.712;2023-03-25T05:15:40;16.20;;;13.93;;
55290;SDS011;41155;39.768;2.712;2023-03-25T05:18:07;14.82;;;13.25;;
55290;SDS011;41155;39.768;2.712;2023-03-25T05:20:44;13.43;;;11.95;;
55290;SDS011;41155;39.768;2.712;2023-03-25T05:23:11;18.42;;;13.52;;
55290;SDS011;41155;39.768;2.712;2023-03-25T05:25:45;17.23;;;13.30;;
55290;SDS011;41155;39.768;2.712;2023-03-25T05:28:13;24.20;;;14.00;;
55290;SDS011;41155;39.768;2.712;2023-03-25T05:30:39;16.88;;;14.85;;
55290;SDS011;41155;39.768;2.712;2023-03-25T05:33:09;17.58;;;15.88;;
55290;SDS011;41155;39.768;2.712;2023-03-25T05:35:38;25.15;;;17.02;;
55290;SDS011;41155;39.768;2.712;2023-03-25T05:38:04;15.77;;;14.18;;
55290;SDS011;41155;39.768;2.712;2023-03-25T05:40:32;24.58;;;13.48;;
55290;SDS011;41155;39.768;2.712;2023-03-25T05:42:58;16.67;;;13.65;;
55290;SDS011;41155;39.768;2.712;2023-03-25T05:45:24;20.10;;;13.80;;
55290;SDS011;41155;39.768;2.712;2023-03-25T05:47:49;16.40;;;13.07;;
55290;SDS011;41155;39.768;2.712;2023-03-25T05:50:16;26.27;;;13.98;;
55290;SDS011;41155;39.768;2.712;2023-03-25T05:52:44;15.50;;;13.43;;
55290;SDS011;41155;39.768;2.712;2023-03-25T05:55:15;25.95;;;14.75;;
55290;SDS011;41155;39.768;2.712;2023-03-25T05:57:44;24.98;;;15.80;;
55290;SDS011;41155;39.768;2.712;2023-03-25T06:00:11;24.23;;;13.70;;
55290;SDS011;41155;39.768;2.712;2023-03-25T06:02:37;22.63;;;16.10;;
55290;SDS011;41155;39.768;2.712;2023-03-25T06:05:06;22.73;;;14.98;;
55290;SDS011;41155;39.768;2.712;2023-03-25T06:07:36;22.38;;;16.15;;
55290;SDS011;41155;39.768;2.712;2023-03-25T06:10:03;22.23;;;16.25;;
55290;SDS011;41155;39.768;2.712;2023-03-25T06:12:29;20.77;;;14.98;;
55290;SDS011;41155;39.768;2.712;2023-03-25T06:14:57;20.02;;;13.85;;
55290;SDS011;41155;39.768;2.712;2023-03-25T06:17:23;24.00;;;14.77;;
55290;SDS011;41155;39.768;2.712;2023-03-25T06:19:49;26.98;;;15.48;;
55290;SDS011;41155;39.768;2.712;2023-03-25T06:22:15;17.77;;;15.30;;
55290;SDS011;41155;39.768;2.712;2023-03-25T06:24:44;32.10;;;15.98;;
55290;SDS011;41155;39.768;2.712;2023-03-25T06:27:12;40.78;;;16.92;;
55290;SDS011;41155;39.768;2.712;2023-03-25T06:29:41;26.45;;;17.15;;
55290;SDS011;41155;39.768;2.712;2023-03-25T06:32:07;28.33;;;17.25;;
55290;SDS011;41155;39.768;2.712;2023-03-25T06:34:35;23.08;;;15.38;;
55290;SDS011;41155;39.768;2.712;2023-03-25T06:37:01;31.13;;;16.30;;
55290;SDS011;41155;39.768;2.712;2023-03-25T06:39:27;21.70;;;15.23;;
55290;SDS011;41155;39.768;2.712;2023-03-25T06:41:55;20.30;;;16.38;;
55290;SDS011;41155;39.768;2.712;2023-03-25T06:44:25;50.65;;;18.33;;
55290;SDS011;41155;39.768;2.712;2023-03-25T06:46:51;27.70;;;17.08;;
55290;SDS011;41155;39.768;2.712;2023-03-25T06:49:17;22.10;;;15.63;;
55290;SDS011;41155;39.768;2.712;2023-03-25T06:51:43;34.17;;;15.98;;
55290;SDS011;41155;39.768;2.712;2023-03-25T06:54:09;28.48;;;16.98;;
55290;SDS011;41155;39.768;2.712;2023-03-25T06:56:34;44.90;;;17.58;;
55290;SDS011;41155;39.768;2.712;2023-03-25T06:59:00;37.20;;;20.05;;
55290;SDS011;41155;39.768;2.712;2023-03-25T07:01:25;21.23;;;18.90;;
55290;SDS011;41155;39.768;2.712;2023-03-25T07:03:51;25.42;;;21.00;;
55290;SDS011;41155;39.768;2.712;2023-03-25T07:06:17;22.80;;;18.88;;
55290;SDS011;41155;39.768;2.712;2023-03-25T07:08:45;27.60;;;18.63;;
55290;SDS011;41155;39.768;2.712;2023-03-25T07:11:11;37.40;;;18.80;;
55290;SDS011;41155;39.768;2.712;2023-03-25T07:13:38;21.58;;;17.40;;
55290;SDS011;41155;39.768;2.712;2023-03-25T07:16:03;22.83;;;16.10;;
55290;SDS011;41155;39.768;2.712;2023-03-25T07:18:29;23.08;;;13.40;;
55290;SDS011;41155;39.768;2.712;2023-03-25T07:20:55;15.70;;;13.70;;
55290;SDS011;41155;39.768;2.712;2023-03-25T07:23:20;19.05;;;12.15;;
55290;SDS011;41155;39.768;2.712;2023-03-25T07:25:46;15.15;;;12.45;;
55290;SDS011;41155;39.768;2.712;2023-03-25T07:28:12;26.83;;;14.55;;
55290;SDS011;41155;39.768;2.712;2023-03-25T07:30:37;18.45;;;14.75;;
55290;SDS011;41155;39.768;2.712;2023-03-25T07:33:03;17.30;;;15.38;;
55290;SDS011;41155;39.768;2.712;2023-03-25T07:35:28;25.55;;;16.88;;
55290;SDS011;41155;39.768;2.712;2023-03-25T07:37:54;21.38;;;15.65;;
55290;SDS011;41155;39.768;2.712;2023-03-25T07:40:20;19.35;;;14.85;;
55290;SDS011;41155;39.768;2.712;2023-03-25T07:42:45;21.60;;;17.50;;
55290;SDS011;41155;39.768;2.712;2023-03-25T07:45:11;25.83;;;15.25;;
55290;SDS011;41155;39.768;2.712;2023-03-25T07:47:36;24.95;;;16.95;;
55290;SDS011;41155;39.768;2.712;2023-03-25T07:50:02;30.35;;;16.70;;
55290;SDS011;41155;39.768;2.712;2023-03-25T07:52:28;17.70;;;15.88;;
55290;SDS011;41155;39.768;2.712;2023-03-25T07:54:53;25.45;;;14.23;;
55290;SDS011;41155;39.768;2.712;2023-03-25T07:57:19;25.77;;;15.45;;
55290;SDS011;41155;39.768;2.712;2023-03-25T07:59:45;21.67;;;16.38;;
55290;SDS011;41155;39.768;2.712;2023-03-25T08:02:13;33.35;;;24.58;;
55290;SDS011;41155;39.768;2.712;2023-03-25T08:04:40;30.52;;;20.63;;
55290;SDS011;41155;39.768;2.712;2023-03-25T08:07:05;26.90;;;22.15;;
55290;SDS011;41155;39.768;2.712;2023-03-25T08:09:32;139.07;;;86.63;;
55290;SDS011;41155;39.768;2.712;2023-03-25T08:11:57;138.48;;;97.10;;
55290;SDS011;41155;39.768;2.712;2023-03-25T08:14:23;88.13;;;66.68;;
55290;SDS011;41155;39.768;2.712;2023-03-25T08:16:49;77.60;;;60.63;;
55290;SDS011;41155;39.768;2.712;2023-03-25T08:19:15;59.10;;;43.33;;
55290;SDS011;41155;39.768;2.712;2023-03-25T08:21:41;67.40;;;43.28;;
55290;SDS011;41155;39.768;2.712;2023-03-25T08:24:06;45.45;;;33.63;;
55290;SDS011;41155;39.768;2.712;2023-03-25T08:26:32;32.78;;;26.27;;
55290;SDS011;41155;39.768;2.712;2023-03-25T08:28:59;59.25;;;29.17;;
55290;SDS011;41155;39.768;2.712;2023-03-25T08:31:26;64.28;;;35.28;;
55290;SDS011;41155;39.768;2.712;2023-03-25T08:34:01;28.63;;;20.17;;
55290;SDS011;41155;39.768;2.712;2023-03-25T08:36:27;28.35;;;19.67;;
55290;SDS011;41155;39.768;2.712;2023-03-25T08:38:53;29.33;;;20.42;;
55290;SDS011;41155;39.768;2.712;2023-03-25T08:41:19;32.40;;;19.88;;
55290;SDS011;41155;39.768;2.712;2023-03-25T08:43:44;35.67;;;21.02;;
55290;SDS011;41155;39.768;2.712;2023-03-25T08:46:10;26.85;;;22.48;;
55290;SDS011;41155;39.768;2.712;2023-03-25T08:48:36;41.60;;;30.27;;
55290;SDS011;41155;39.768;2.712;2023-03-25T08:51:02;34.13;;;25.85;;
55290;SDS011;41155;39.768;2.712;2023-03-25T08:53:28;17.67;;;9.85;;
55290;SDS011;41155;39.768;2.712;2023-03-25T08:55:54;13.93;;;8.35;;
55290;SDS011;41155;39.768;2.712;2023-03-25T08:58:21;20.48;;;8.10;;
55290;SDS011;41155;39.768;2.712;2023-03-25T09:00:48;17.05;;;9.40;;
55290;SDS011;41155;39.768;2.712;2023-03-25T09:03:21;20.75;;;10.40;;
55290;SDS011;41155;39.768;2.712;2023-03-25T09:05:47;17.55;;;9.90;;
55290;SDS011;41155;39.768;2.712;2023-03-25T09:08:13;25.40;;;16.42;;
55290;SDS011;41155;39.768;2.712;2023-03-25T09:10:39;34.80;;;18.38;;
55290;SDS011;41155;39.768;2.712;2023-03-25T09:13:05;36.60;;;21.52;;
55290;SDS011;41155;39.768;2.712;2023-03-25T09:15:31;24.80;;;16.13;;
55290;SDS011;41155;39.768;2.712;2023-03-25T09:17:57;29.38;;;13.77;;
55290;SDS011;41155;39.768;2.712;2023-03-25T09:20:22;25.40;;;15.48;;
55290;SDS011;41155;39.768;2.712;2023-03-25T09:22:48;33.08;;;15.18;;
55290;SDS011;41155;39.768;2.712;2023-03-25T09:25:14;18.15;;;11.18;;
55290;SDS011;41155;39.768;2.712;2023-03-25T09:27:40;20.67;;;9.95;;
55290;SDS011;41155;39.768;2.712;2023-03-25T09:30:05;10.55;;;8.23;;
55290;SDS011;41155;39.768;2.712;2023-03-25T09:32:32;18.65;;;9.23;;
55290;SDS011;41155;39.768;2.712;2023-03-25T09:34:58;15.48;;;7.55;;
55290;SDS011;41155;39.768;2.712;2023-03-25T09:37:23;12.20;;;6.63;;
55290;SDS011;41155;39.768;2.712;2023-03-25T09:39:50;20.13;;;7.78;;
55290;SDS011;41155;39.768;2.712;2023-03-25T09:42:59;41.05;;;9.48;;
55290;SDS011;41155;39.768;2.712;2023-03-25T09:45:34;21.80;;;10.57;;
55290;SDS011;41155;39.768;2.712;2023-03-25T09:48:02;17.08;;;7.82;;
55290;SDS011;41155;39.768;2.712;2023-03-25T09:50:36;17.02;;;6.18;;
55290;SDS011;41155;39.768;2.712;2023-03-25T09:53:16;16.80;;;6.78;;
55290;SDS011;41155;39.768;2.712;2023-03-25T09:56:00;22.95;;;8.95;;
55290;SDS011;41155;39.768;2.712;2023-03-25T09:58:35;22.80;;;12.25;;
55290;SDS011;41155;39.768;2.712;2023-03-25T10:06:32;29.20;;;12.00;;
55290;SDS011;41155;39.768;2.712;2023-03-25T10:09:25;70.70;;;37.05;;
55290;SDS011;41155;39.768;2.712;2023-03-25T10:12:18;22.45;;;10.45;;
55290;SDS011;41155;39.768;2.712;2023-03-25T10:17:30;29.75;;;19.35;;
55290;SDS011;41155;39.768;2.712;2023-03-25T10:20:11;21.60;;;10.60;;
55290;SDS011;41155;39.768;2.712;2023-03-25T10:25:35;12.82;;;7.28;;
55290;SDS011;41155;39.768;2.712;2023-03-25T10:28:06;15.13;;;6.25;;
55290;SDS011;41155;39.768;2.712;2023-03-25T10:30:46;13.23;;;8.23;;
55290;SDS011;41155;39.768;2.712;2023-03-25T10:33:32;25.00;;;16.05;;
55290;SDS011;41155;39.768;2.712;2023-03-25T10:36:01;34.10;;;20.02;;
55290;SDS011;41155;39.768;2.712;2023-03-25T10:38:30;24.25;;;15.93;;
55290;SDS011;41155;39.768;2.712;2023-03-25T10:43:44;15.00;;;7.22;;
55290;SDS011;41155;39.768;2.712;2023-03-25T10:46:30;10.13;;;6.15;;
55290;SDS011;41155;39.768;2.712;2023-03-25T10:49:01;13.48;;;6.65;;
55290;SDS011;41155;39.768;2.712;2023-03-25T10:51:35;7.97;;;4.13;;
55290;SDS011;41155;39.768;2.712;2023-03-25T10:54:01;9.48;;;5.75;;
55290;SDS011;41155;39.768;2.712;2023-03-25T10:56:35;7.75;;;5.57;;
55290;SDS011;41155;39.768;2.712;2023-03-25T10:59:10;24.70;;;4.93;;
55290;SDS011;41155;39.768;2.712;2023-03-25T11:01:48;9.60;;;5.10;;
55290;SDS011;41155;39.768;2.712;2023-03-25T11:04:18;11.88;;;6.88;;
55290;SDS011;41155;39.768;2.712;2023-03-25T11:06:50;8.77;;;4.78;;
55290;SDS011;41155;39.768;2.712;2023-03-25T11:11:55;6.10;;;3.25;;
55290;SDS011;41155;39.768;2.712;2023-03-25T11:14:24;15.30;;;4.55;;
55290;SDS011;41155;39.768;2.712;2023-03-25T11:16:59;8.90;;;4.40;;
55290;SDS011;41155;39.768;2.712;2023-03-25T11:22:12;4.47;;;3.10;;
55290;SDS011;41155;39.768;2.712;2023-03-25T11:24:47;9.50;;;3.80;;
55290;SDS011;41155;39.768;2.712;2023-03-25T11:27:18;17.17;;;4.07;;
55290;SDS011;41155;39.768;2.712;2023-03-25T11:30:05;8.98;;;3.30;;
55290;SDS011;41155;39.768;2.712;2023-03-25T11:32:40;9.95;;;5.25;;
55290;SDS011;41155;39.768;2.712;2023-03-25T11:35:16;7.22;;;4.00;;
55290;SDS011;41155;39.768;2.712;2023-03-25T11:37:47;14.88;;;3.55;;
55290;SDS011;41155;39.768;2.712;2023-03-25T11:40:19;6.72;;;3.13;;
55290;SDS011;41155;39.768;2.712;2023-03-25T11:42:45;8.90;;;3.47;;
55290;SDS011;41155;39.768;2.712;2023-03-25T11:48:00;16.75;;;3.67;;
55290;SDS011;41155;39.768;2.712;2023-03-25T11:50:33;9.90;;;3.63;;
55290;SDS011;41155;39.768;2.712;2023-03-25T11:53:00;10.82;;;3.97;;
55290;SDS011;41155;39.768;2.712;2023-03-25T11:55:31;6.85;;;3.72;;
55290;SDS011;41155;39.768;2.712;2023-03-25T11:58:17;10.93;;;4.03;;
55290;SDS011;41155;39.768;2.712;2023-03-25T12:00:49;12.98;;;4.97;;
55290;SDS011;41155;39.768;2.712;2023-03-25T12:03:21;17.05;;;5.60;;
55290;SDS011;41155;39.768;2.712;2023-03-25T12:08:43;6.65;;;3.97;;
55290;SDS011;41155;39.768;2.712;2023-03-25T12:11:28;14.25;;;3.97;;
55290;SDS011;41155;39.768;2.712;2023-03-25T12:21:37;9.48;;;4.05;;
55290;SDS011;41155;39.768;2.712;2023-03-25T12:29:59;12.10;;;4.07;;
55290;SDS011;41155;39.768;2.712;2023-03-25T12:35:48;14.77;;;4.53;;
55290;SDS011;41155;39.768;2.712;2023-03-25T12:38:21;8.35;;;4.10;;
55290;SDS011;41155;39.768;2.712;2023-03-25T13:06:45;13.52;;;4.43;;
55290;SDS011;41155;39.768;2.712;2023-03-25T13:12:13;9.25;;;4.05;;
55290;SDS011;41155;39.768;2.712;2023-03-25T13:15:01;13.43;;;4.30;;
55290;SDS011;41155;39.768;2.712;2023-03-25T13:17:38;14.18;;;4.22;;
55290;SDS011;41155;39.768;2.712;2023-03-25T13:20:09;14.80;;;5.72;;
55290;SDS011;41155;39.768;2.712;2023-03-25T13:22:46;14.95;;;5.47;;
55290;SDS011;41155;39.768;2.712;2023-03-25T13:25:19;9.80;;;4.47;;
55290;SDS011;41155;39.768;2.712;2023-03-25T13:27:50;13.40;;;3.97;;
55290;SDS011;41155;39.768;2.712;2023-03-25T13:30:29;21.65;;;4.25;;
55290;SDS011;41155;39.768;2.712;2023-03-25T13:33:11;13.82;;;4.95;;
55290;SDS011;41155;39.768;2.712;2023-03-25T13:35:46;7.55;;;3.72;;
55290;SDS011;41155;39.768;2.712;2023-03-25T13:38:28;9.45;;;3.60;;
55290;SDS011;41155;39.768;2.712;2023-03-25T13:41:08;10.05;;;4.07;;
55290;SDS011;41155;39.768;2.712;2023-03-25T13:46:18;11.55;;;4.57;;
55290;SDS011;41155;39.768;2.712;2023-03-25T13:49:02;10.07;;;4.13;;
55290;SDS011;41155;39.768;2.712;2023-03-25T13:51:36;9.88;;;4.63;;
55290;SDS011;41155;39.768;2.712;2023-03-25T14:08:09;11.13;;;4.50;;
55290;SDS011;41155;39.768;2.712;2023-03-25T14:13:51;22.40;;;8.15;;
55290;SDS011;41155;39.768;2.712;2023-03-25T14:16:24;10.93;;;5.38;;
55290;SDS011;41155;39.768;2.712;2023-03-25T14:18:57;14.63;;;4.45;;
55290;SDS011;41155;39.768;2.712;2023-03-25T14:21:30;9.60;;;4.03;;
55290;SDS011;41155;39.768;2.712;2023-03-25T14:26:34;12.50;;;4.65;;
55290;SDS011;41155;39.768;2.712;2023-03-25T14:29:05;12.40;;;4.72;;
55290;SDS011;41155;39.768;2.712;2023-03-25T14:31:34;11.77;;;4.37;;
55290;SDS011;41155;39.768;2.712;2023-03-25T14:39:10;10.18;;;4.07;;
55290;SDS011;41155;39.768;2.712;2023-03-25T14:44:35;19.25;;;5.65;;
55290;SDS011;41155;39.768;2.712;2023-03-25T14:55:19;11.90;;;4.35;;
55290;SDS011;41155;39.768;2.712;2023-03-25T14:57:54;15.25;;;4.65;;
55290;SDS011;41155;39.768;2.712;2023-03-25T15:00:28;7.60;;;4.10;;
55290;SDS011;41155;39.768;2.712;2023-03-25T15:02:59;14.68;;;4.55;;
55290;SDS011;41155;39.768;2.712;2023-03-25T15:05:28;12.02;;;4.10;;
55290;SDS011;41155;39.768;2.712;2023-03-25T15:07:57;12.15;;;4.20;;
55290;SDS011;41155;39.768;2.712;2023-03-25T15:10:39;13.63;;;4.90;;
55290;SDS011;41155;39.768;2.712;2023-03-25T15:16:01;11.90;;;4.35;;
55290;SDS011;41155;39.768;2.712;2023-03-25T15:42:30;12.27;;;4.57;;
55290;SDS011;41155;39.768;2.712;2023-03-25T15:50:35;16.73;;;5.15;;
55290;SDS011;41155;39.768;2.712;2023-03-25T15:55:52;22.67;;;5.07;;
55290;SDS011;41155;39.768;2.712;2023-03-25T15:58:34;13.65;;;5.30;;
55290;SDS011;41155;39.768;2.712;2023-03-25T16:01:15;12.35;;;4.88;;
55290;SDS011;41155;39.768;2.712;2023-03-25T16:03:47;12.13;;;5.57;;
55290;SDS011;41155;39.768;2.712;2023-03-25T16:06:20;16.48;;;5.55;;
55290;SDS011;41155;39.768;2.712;2023-03-25T16:08:47;11.25;;;6.00;;
55290;SDS011;41155;39.768;2.712;2023-03-25T16:13:46;26.05;;;5.13;;
55290;SDS011;41155;39.768;2.712;2023-03-25T16:16:24;12.50;;;5.38;;
55290;SDS011;41155;39.768;2.712;2023-03-25T16:18:51;14.43;;;5.38;;
55290;SDS011;41155;39.768;2.712;2023-03-25T16:21:18;14.63;;;6.22;;
55290;SDS011;41155;39.768;2.712;2023-03-25T16:23:44;12.07;;;5.22;;
55290;SDS011;41155;39.768;2.712;2023-03-25T16:26:11;15.10;;;4.93;;
55290;SDS011;41155;39.768;2.712;2023-03-25T16:28:40;11.30;;;4.97;;
55290;SDS011;41155;39.768;2.712;2023-03-25T16:31:26;15.55;;;4.88;;
55290;SDS011;41155;39.768;2.712;2023-03-25T16:34:08;26.15;;;5.40;;
55290;SDS011;41155;39.768;2.712;2023-03-25T16:39:07;12.38;;;4.95;;
55290;SDS011;41155;39.768;2.712;2023-03-25T16:41:37;13.27;;;5.18;;
55290;SDS011;41155;39.768;2.712;2023-03-25T16:44:02;15.35;;;4.68;;
55290;SDS011;41155;39.768;2.712;2023-03-25T16:46:28;17.42;;;5.30;;
55290;SDS011;41155;39.768;2.712;2023-03-25T16:48:53;12.98;;;4.88;;
55290;SDS011;41155;39.768;2.712;2023-03-25T16:51:28;13.95;;;4.80;;
55290;SDS011;41155;39.768;2.712;2023-03-25T16:53:59;18.88;;;4.82;;
55290;SDS011;41155;39.768;2.712;2023-03-25T16:56:29;11.95;;;4.53;;
55290;SDS011;41155;39.768;2.712;2023-03-25T16:58:57;13.23;;;4.55;;
55290;SDS011;41155;39.768;2.712;2023-03-25T17:01:41;24.05;;;5.28;;
55290;SDS011;41155;39.768;2.712;2023-03-25T17:04:16;12.82;;;4.70;;
55290;SDS011;41155;39.768;2.712;2023-03-25T17:06:44;11.77;;;4.97;;
55290;SDS011;41155;39.768;2.712;2023-03-25T17:09:17;16.30;;;5.75;;
55290;SDS011;41155;39.768;2.712;2023-03-25T17:11:44;18.90;;;5.55;;
55290;SDS011;41155;39.768;2.712;2023-03-25T17:14:15;11.02;;;4.97;;
55290;SDS011;41155;39.768;2.712;2023-03-25T17:16:44;12.00;;;4.85;;
55290;SDS011;41155;39.768;2.712;2023-03-25T17:19:12;14.45;;;4.80;;
55290;SDS011;41155;39.768;2.712;2023-03-25T17:21:56;11.27;;;5.18;;
55290;SDS011;41155;39.768;2.712;2023-03-25T17:24:35;10.40;;;4.85;;
55290;SDS011;41155;39.768;2.712;2023-03-25T17:27:05;11.75;;;5.82;;
55290;SDS011;41155;39.768;2.712;2023-03-25T17:29:54;15.27;;;5.93;;
55290;SDS011;41155;39.768;2.712;2023-03-25T17:32:22;9.85;;;5.35;;
55290;SDS011;41155;39.768;2.712;2023-03-25T17:34:53;18.98;;;6.05;;
55290;SDS011;41155;39.768;2.712;2023-03-25T17:37:22;13.25;;;5.90;;
55290;SDS011;41155;39.768;2.712;2023-03-25T17:39:49;14.20;;;6.00;;
55290;SDS011;41155;39.768;2.712;2023-03-25T17:42:20;29.83;;;11.60;;
55290;SDS011;41155;39.768;2.712;2023-03-25T17:44:48;27.25;;;10.27;;
55290;SDS011;41155;39.768;2.712;2023-03-25T17:47:15;17.23;;;7.53;;
55290;SDS011;41155;39.768;2.712;2023-03-25T17:49:42;25.02;;;7.13;;
55290;SDS011;41155;39.768;2.712;2023-03-25T17:52:08;16.17;;;6.07;;
55290;SDS011;41155;39.768;2.712;2023-03-25T17:54:34;47.40;;;20.33;;